createdAt,value
2017-08-02T00:02:25.250Z,24.10
2017-08-02T00:04:53.643Z,24.00
2017-08-02T00:07:21.163Z,24.00
2017-08-02T00:09:48.667Z,23.90
2017-08-02T00:12:16.145Z,23.90
2017-08-02T00:14:43.674Z,23.80
2017-08-02T00:17:11.162Z,23.80
2017-08-02T00:19:38.675Z,23.70
2017-08-02T00:22:07.011Z,23.70
2017-08-02T00:24:34.710Z,23.70
2017-08-02T00:27:02.387Z,23.70
2017-08-02T00:29:30.050Z,23.70
2017-08-02T00:31:57.756Z,23.60
2017-08-02T00:34:25.280Z,23.60
2017-08-02T00:36:53.561Z,23.60
2017-08-02T00:39:21.207Z,23.50
2017-08-02T00:41:49.609Z,23.50
2017-08-02T00:44:17.165Z,23.50
2017-08-02T00:46:45.550Z,23.50
2017-08-02T00:49:14.014Z,23.50
2017-08-02T00:51:41.514Z,23.50
2017-08-02T00:54:09.139Z,23.40
2017-08-02T00:56:36.703Z,23.30
2017-08-02T00:59:06.733Z,23.30
2017-08-02T01:01:34.391Z,23.20
2017-08-02T01:04:02.032Z,23.30
2017-08-02T01:06:29.596Z,23.30
2017-08-02T01:08:57.860Z,23.30
2017-08-02T01:11:26.145Z,23.30
2017-08-02T01:13:54.459Z,23.30
2017-08-02T01:16:21.973Z,23.30
2017-08-02T01:18:49.510Z,23.30
2017-08-02T01:21:17.042Z,23.30
2017-08-02T01:23:44.564Z,23.30
2017-08-02T01:26:12.121Z,23.30
2017-08-02T01:28:40.443Z,23.40
2017-08-02T01:31:07.929Z,23.40
2017-08-02T01:33:35.639Z,23.30
2017-08-02T01:36:03.139Z,23.30
2017-08-02T01:38:30.644Z,23.40
2017-08-02T01:40:59.015Z,23.50
2017-08-02T01:43:26.500Z,23.50
2017-08-02T01:45:54.031Z,23.50
2017-08-02T01:48:22.293Z,23.50
2017-08-02T01:50:49.890Z,23.50
2017-08-02T01:53:17.389Z,23.60
2017-08-02T01:55:44.998Z,23.40
2017-08-02T01:58:13.270Z,23.10
2017-08-02T02:00:40.774Z,23.10
2017-08-02T02:03:08.597Z,23.00
2017-08-02T02:05:36.259Z,22.90
2017-08-02T02:08:03.928Z,22.80
2017-08-02T02:10:31.763Z,22.70
2017-08-02T02:12:59.472Z,22.60
2017-08-02T02:15:27.136Z,22.50
2017-08-02T02:17:54.695Z,22.50
2017-08-02T02:20:22.193Z,22.40
2017-08-02T02:22:49.688Z,22.40
2017-08-02T02:25:17.177Z,22.40
2017-08-02T02:27:44.694Z,22.40
2017-08-02T02:30:12.235Z,22.50
2017-08-02T02:32:39.771Z,22.60
2017-08-02T02:35:07.258Z,22.60
2017-08-02T02:37:34.764Z,22.60
2017-08-02T02:40:03.013Z,22.60
2017-08-02T02:45:38.350Z,22.60
2017-08-02T02:51:02.443Z,22.30
2017-08-02T02:53:30.067Z,22.20
2017-08-02T02:55:57.615Z,22.20
2017-08-02T02:58:25.889Z,22.30
2017-08-02T03:00:54.196Z,22.30
2017-08-02T03:03:21.704Z,22.30
2017-08-02T03:05:49.360Z,22.30
2017-08-02T03:08:16.860Z,22.40
2017-08-02T03:10:44.374Z,22.40
2017-08-02T03:13:11.856Z,22.40
2017-08-02T03:15:39.497Z,22.30
2017-08-02T03:18:07.128Z,22.20
2017-08-02T03:20:34.639Z,22.10
2017-08-02T03:23:02.230Z,22.10
2017-08-02T03:25:29.779Z,22.00
2017-08-02T03:27:58.142Z,21.90
2017-08-02T03:30:25.817Z,21.90
2017-08-02T03:32:53.344Z,21.90
2017-08-02T03:35:20.829Z,21.90
2017-08-02T03:37:49.241Z,22.00
2017-08-02T03:40:16.766Z,22.00
2017-08-02T03:42:44.526Z,22.00
2017-08-02T03:45:12.222Z,22.00
2017-08-02T03:47:39.760Z,21.90
2017-08-02T03:50:08.029Z,22.00
2017-08-02T03:52:36.286Z,22.00
2017-08-02T03:55:03.922Z,22.00
2017-08-02T03:57:31.583Z,22.00
2017-08-02T03:59:59.190Z,22.00
2017-08-02T04:02:26.691Z,22.00
2017-08-02T04:04:54.339Z,22.00
2017-08-02T04:07:21.926Z,22.00
2017-08-02T04:09:49.476Z,22.00
2017-08-02T04:12:17.151Z,22.10
2017-08-02T04:14:44.661Z,22.10
2017-08-02T04:17:13.021Z,22.10
2017-08-02T04:19:40.710Z,22.10
2017-08-02T04:22:08.285Z,22.10
2017-08-02T04:24:35.768Z,22.10
2017-08-02T04:27:03.505Z,22.00
2017-08-02T04:29:31.025Z,22.00
2017-08-02T04:31:58.539Z,22.20
2017-08-02T04:34:26.073Z,22.30
2017-08-02T04:36:53.734Z,22.20
2017-08-02T04:39:21.398Z,22.10
2017-08-02T04:41:48.977Z,22.20
2017-08-02T04:44:16.519Z,22.20
2017-08-02T04:46:44.172Z,22.30
2017-08-02T04:49:11.712Z,22.40
2017-08-02T04:51:39.228Z,22.20
2017-08-02T04:54:06.800Z,22.20
2017-08-02T04:56:34.444Z,22.30
2017-08-02T04:59:01.969Z,22.30
2017-08-02T05:01:29.754Z,22.30
2017-08-02T05:03:57.426Z,22.20
2017-08-02T05:06:24.974Z,22.20
2017-08-02T05:08:52.534Z,22.20
2017-08-02T05:11:20.203Z,22.10
2017-08-02T05:13:47.700Z,22.10
2017-08-02T05:16:15.219Z,22.10
2017-08-02T05:18:43.005Z,22.10
2017-08-02T05:21:10.618Z,22.10
2017-08-02T05:23:38.160Z,22.10
2017-08-02T05:26:05.792Z,22.00
2017-08-02T05:28:33.322Z,22.10
2017-08-02T05:31:01.641Z,22.10
2017-08-02T05:33:29.194Z,22.10
2017-08-02T05:35:56.852Z,22.10
2017-08-02T05:38:24.372Z,22.10
2017-08-02T05:40:52.656Z,22.10
2017-08-02T05:43:20.925Z,22.10
2017-08-02T05:45:49.353Z,22.00
2017-08-02T05:48:16.877Z,22.00
2017-08-02T05:50:45.148Z,22.10
2017-08-02T05:53:13.485Z,22.10
2017-08-02T05:55:41.028Z,22.10
2017-08-02T05:58:08.532Z,22.20
2017-08-02T06:00:36.101Z,22.40
2017-08-02T06:03:03.677Z,22.50
2017-08-02T06:05:31.197Z,22.50
2017-08-02T06:07:58.753Z,22.40
2017-08-02T06:10:26.780Z,22.50
2017-08-02T06:12:54.430Z,22.60
2017-08-02T06:15:22.793Z,22.70
2017-08-02T06:17:50.640Z,22.80
2017-08-02T06:20:19.038Z,23.20
2017-08-02T06:22:47.627Z,23.20
2017-08-02T06:25:18.638Z,23.30
2017-08-02T06:27:48.815Z,23.30
2017-08-02T06:30:19.486Z,23.30
2017-08-02T06:32:48.430Z,23.40
2017-08-02T06:35:15.960Z,23.50
2017-08-02T06:37:43.471Z,23.60
2017-08-02T06:40:10.985Z,23.60
2017-08-02T06:42:38.695Z,23.60
2017-08-02T06:45:06.336Z,23.70
2017-08-02T06:47:33.866Z,23.80
2017-08-02T06:50:01.563Z,23.80
2017-08-02T06:52:29.204Z,23.90
2017-08-02T06:54:57.640Z,23.90
2017-08-02T06:57:25.172Z,23.80
2017-08-02T06:59:52.662Z,23.80
2017-08-02T07:02:20.595Z,23.80
2017-08-02T07:04:48.153Z,23.90
2017-08-02T07:07:15.636Z,23.80
2017-08-02T07:09:43.142Z,23.80
2017-08-02T07:12:10.724Z,23.90
2017-08-02T07:14:39.063Z,24.10
2017-08-02T07:17:06.641Z,24.10
2017-08-02T07:19:34.227Z,24.20
2017-08-02T07:22:01.745Z,24.20
2017-08-02T07:24:29.239Z,24.20
2017-08-02T07:26:57.609Z,24.30
2017-08-02T07:29:25.550Z,24.30
2017-08-02T07:31:53.047Z,24.30
2017-08-02T07:34:21.338Z,24.40
2017-08-02T07:36:48.909Z,24.40
2017-08-02T07:39:16.410Z,24.60
2017-08-02T07:41:44.040Z,24.70
2017-08-02T07:44:11.696Z,24.80
2017-08-02T07:46:39.421Z,25.00
2017-08-02T07:49:07.800Z,24.90
2017-08-02T07:51:35.494Z,24.80
2017-08-02T07:54:03.215Z,24.90
2017-08-02T07:56:30.894Z,24.90
2017-08-02T07:58:59.181Z,24.90
2017-08-02T08:01:27.440Z,24.90
2017-08-02T08:03:55.849Z,24.70
2017-08-02T08:06:23.365Z,24.70
2017-08-02T08:08:50.866Z,24.80
2017-08-02T08:11:18.351Z,24.80
2017-08-02T08:13:45.991Z,24.80
2017-08-02T08:16:13.634Z,24.60
2017-08-02T08:18:41.903Z,24.80
2017-08-02T08:21:10.242Z,25.00
2017-08-02T08:23:37.748Z,25.00
2017-08-02T08:26:05.308Z,25.20
2017-08-02T08:28:33.095Z,25.10
2017-08-02T08:31:00.594Z,25.10
2017-08-02T08:33:28.162Z,25.10
2017-08-02T08:35:55.859Z,25.20
2017-08-02T08:38:23.378Z,25.40
2017-08-02T08:40:50.879Z,25.60
2017-08-02T08:43:19.261Z,25.70
2017-08-02T08:45:46.851Z,25.60
2017-08-02T08:48:14.361Z,25.80
2017-08-02T08:50:41.928Z,25.80
2017-08-02T08:53:10.306Z,26.00
2017-08-02T08:55:37.992Z,25.90
2017-08-02T08:58:05.677Z,25.60
2017-08-02T09:00:33.305Z,25.60
2017-08-02T09:03:00.847Z,25.50
2017-08-02T09:05:28.435Z,25.50
2017-08-02T09:07:55.980Z,25.60
2017-08-02T09:10:24.360Z,25.90
2017-08-02T09:12:52.020Z,25.80
2017-08-02T09:15:19.726Z,26.00
2017-08-02T09:17:47.213Z,26.20
2017-08-02T09:20:14.705Z,26.20
2017-08-02T09:22:43.031Z,26.50
2017-08-02T09:25:10.751Z,26.50
2017-08-02T09:27:38.452Z,26.70
2017-08-02T09:30:05.996Z,26.70
2017-08-02T09:32:33.929Z,26.30
2017-08-02T09:35:01.592Z,26.20
2017-08-02T09:37:29.300Z,26.20
2017-08-02T09:39:56.795Z,26.10
2017-08-02T09:42:24.394Z,26.00
2017-08-02T09:44:51.978Z,26.10
2017-08-02T09:47:19.515Z,26.20
2017-08-02T09:49:47.032Z,26.50
2017-08-02T09:52:14.541Z,26.60
2017-08-02T09:54:42.039Z,26.70
2017-08-02T09:57:09.578Z,26.80
2017-08-02T09:59:37.062Z,26.70
2017-08-02T10:02:04.555Z,26.70
2017-08-02T10:04:32.829Z,26.50
2017-08-02T10:07:01.226Z,26.30
2017-08-02T10:09:28.880Z,26.40
2017-08-02T10:11:56.425Z,26.30
2017-08-02T10:14:24.020Z,26.40
2017-08-02T10:16:51.672Z,26.40
2017-08-02T10:19:19.184Z,26.40
2017-08-02T10:21:46.714Z,26.70
2017-08-02T10:24:14.255Z,26.90
2017-08-02T10:26:41.909Z,26.90
2017-08-02T10:29:09.430Z,26.40
2017-08-02T10:31:36.936Z,26.20
2017-08-02T10:34:04.516Z,25.90
2017-08-02T10:36:32.025Z,25.80
2017-08-02T10:38:59.605Z,25.60
2017-08-02T10:41:27.214Z,25.50
2017-08-02T10:43:54.755Z,25.40
2017-08-02T10:46:22.376Z,25.30
2017-08-02T10:48:50.050Z,25.40
2017-08-02T10:51:17.701Z,25.50
2017-08-02T10:53:45.199Z,25.60
2017-08-02T10:56:12.712Z,25.50
2017-08-02T10:58:40.362Z,25.50
2017-08-02T11:01:07.883Z,25.70
2017-08-02T11:03:35.391Z,25.80
2017-08-02T11:06:02.875Z,25.80
2017-08-02T11:08:30.534Z,26.00
2017-08-02T11:10:58.222Z,26.50
2017-08-02T11:13:25.709Z,27.30
2017-08-02T11:15:53.207Z,27.50
2017-08-02T11:18:21.482Z,29.20
2017-08-02T11:20:49.779Z,29.50
2017-08-02T11:23:17.293Z,29.40
2017-08-02T11:25:45.004Z,29.20
2017-08-02T11:28:12.677Z,28.40
2017-08-02T11:30:40.170Z,27.90
2017-08-02T11:33:07.707Z,27.70
2017-08-02T11:35:35.248Z,27.80
2017-08-02T11:38:02.737Z,28.00
2017-08-02T11:40:30.242Z,28.30
2017-08-02T11:42:58.490Z,28.20
2017-08-02T11:45:26.016Z,28.20
2017-08-02T11:47:53.532Z,28.40
2017-08-02T11:50:21.041Z,28.50
2017-08-02T11:52:48.543Z,28.40
2017-08-02T11:55:16.146Z,28.50
2017-08-02T11:57:43.818Z,28.30
2017-08-02T12:00:11.360Z,28.20
2017-08-02T12:02:38.876Z,28.30
2017-08-02T12:05:06.601Z,27.90
2017-08-02T12:07:34.117Z,27.70
2017-08-02T12:10:02.541Z,28.10
2017-08-02T12:12:30.048Z,28.10
2017-08-02T12:14:57.824Z,28.70
2017-08-02T12:17:25.396Z,29.20
2017-08-02T12:19:53.645Z,29.70
2017-08-02T12:22:21.339Z,29.70
2017-08-02T12:24:49.713Z,29.80
2017-08-02T12:27:17.231Z,29.70
2017-08-02T12:29:44.844Z,31.10
2017-08-02T12:32:12.403Z,32.50
2017-08-02T12:34:40.201Z,32.20
2017-08-02T12:37:07.840Z,31.00
2017-08-02T12:39:35.751Z,30.30
2017-08-02T12:42:03.291Z,29.50
2017-08-02T12:44:31.027Z,29.00
2017-08-02T12:46:59.911Z,28.80
2017-08-02T12:49:27.415Z,28.50
2017-08-02T12:51:55.022Z,28.30
2017-08-02T12:54:22.682Z,28.30
2017-08-02T12:56:50.766Z,28.40
2017-08-02T12:59:18.334Z,28.50
2017-08-02T13:01:45.842Z,28.70
2017-08-02T13:04:13.557Z,28.40
2017-08-02T13:06:41.046Z,28.10
2017-08-02T13:09:08.598Z,28.00
2017-08-02T13:11:36.363Z,28.30
2017-08-02T13:14:04.006Z,28.20
2017-08-02T13:16:31.663Z,28.20
2017-08-02T13:18:59.200Z,28.20
2017-08-02T13:21:26.778Z,28.00
2017-08-02T13:23:54.449Z,27.90
2017-08-02T13:26:22.114Z,27.80
2017-08-02T13:28:49.759Z,27.90
2017-08-02T13:31:17.325Z,28.20
2017-08-02T13:33:45.635Z,28.30
2017-08-02T13:36:13.148Z,28.30
2017-08-02T13:38:40.730Z,28.40
2017-08-02T13:41:08.372Z,28.30
2017-08-02T13:43:35.843Z,28.10
2017-08-02T13:46:04.108Z,28.10
2017-08-02T13:48:32.394Z,28.10
2017-08-02T13:51:00.762Z,28.10
2017-08-02T13:53:28.366Z,28.10
2017-08-02T13:55:55.896Z,28.20
2017-08-02T13:58:23.378Z,28.40
2017-08-02T14:00:50.888Z,28.40
2017-08-02T14:03:18.364Z,28.40
2017-08-02T14:05:46.735Z,28.40
2017-08-02T14:08:14.442Z,28.40
2017-08-02T14:10:41.958Z,28.70
2017-08-02T14:13:10.242Z,28.90
2017-08-02T14:15:38.018Z,28.90
2017-08-02T14:18:05.685Z,28.60
2017-08-02T14:20:33.255Z,28.50
2017-08-02T14:23:00.797Z,28.40
2017-08-02T14:25:28.491Z,28.40
2017-08-02T14:27:55.990Z,28.30
2017-08-02T14:30:23.502Z,28.10
2017-08-02T14:32:50.998Z,28.10
2017-08-02T14:35:18.715Z,28.20
2017-08-02T14:37:46.283Z,28.30
2017-08-02T14:40:13.816Z,28.40
2017-08-02T14:42:41.502Z,28.50
2017-08-02T14:45:09.193Z,28.40
2017-08-02T14:47:36.807Z,28.30
2017-08-02T14:50:04.364Z,28.40
2017-08-02T14:52:32.633Z,28.40
2017-08-02T14:55:00.431Z,28.40
2017-08-02T14:57:28.066Z,28.30
2017-08-02T14:59:55.566Z,28.30
2017-08-02T15:02:23.068Z,28.40
2017-08-02T15:04:50.563Z,28.30
2017-08-02T15:07:18.111Z,28.40
2017-08-02T15:09:45.813Z,28.40
2017-08-02T15:12:13.379Z,28.40
2017-08-02T15:14:40.907Z,28.70
2017-08-02T15:17:08.710Z,28.90
2017-08-02T15:19:36.222Z,29.00
2017-08-02T15:22:03.890Z,29.10
2017-08-02T15:24:31.494Z,29.10
2017-08-02T15:26:59.010Z,29.20
2017-08-02T15:29:26.551Z,29.20
2017-08-02T15:31:54.938Z,29.60
2017-08-02T15:34:22.611Z,29.60
2017-08-02T15:36:50.120Z,29.70
2017-08-02T15:39:17.721Z,29.90
2017-08-02T15:41:45.432Z,30.30
2017-08-02T15:44:12.952Z,30.80
2017-08-02T15:46:40.709Z,31.20
2017-08-02T15:49:08.385Z,31.60
2017-08-02T15:51:35.881Z,31.90
2017-08-02T15:54:03.499Z,32.10
2017-08-02T15:56:31.005Z,32.30
2017-08-02T15:58:58.498Z,32.60
2017-08-02T16:01:26.890Z,33.00
2017-08-02T16:03:54.385Z,33.00
2017-08-02T16:06:21.907Z,33.00
2017-08-02T16:08:50.304Z,32.80
2017-08-02T16:11:17.861Z,32.80
2017-08-02T16:13:45.449Z,32.80
2017-08-02T16:16:13.218Z,32.80
2017-08-02T16:18:40.944Z,32.70
2017-08-02T16:21:08.547Z,32.40
2017-08-02T16:23:36.047Z,32.30
2017-08-02T16:26:03.529Z,32.00
2017-08-02T16:28:31.178Z,31.60
2017-08-02T16:30:58.794Z,31.40
2017-08-02T16:33:26.314Z,31.30
2017-08-02T16:35:53.868Z,31.00
2017-08-02T16:38:21.461Z,30.80
2017-08-02T16:40:49.131Z,30.60
2017-08-02T16:43:16.668Z,30.40
2017-08-02T16:45:44.254Z,30.30
2017-08-02T16:48:11.848Z,30.20
2017-08-02T16:50:39.580Z,29.80
2017-08-02T16:53:07.061Z,29.70
2017-08-02T16:55:34.595Z,29.50
2017-08-02T16:58:02.120Z,29.10
2017-08-02T17:00:29.632Z,28.80
2017-08-02T17:02:57.152Z,28.80
2017-08-02T17:05:24.668Z,28.70
2017-08-02T17:07:52.173Z,28.60
2017-08-02T17:10:19.689Z,28.50
2017-08-02T17:12:47.242Z,28.40
2017-08-02T17:15:14.733Z,28.30
2017-08-02T17:17:42.242Z,28.20
2017-08-02T17:20:09.745Z,28.20
2017-08-02T17:22:38.044Z,28.00
2017-08-02T17:25:05.555Z,28.00
2017-08-02T17:27:33.041Z,28.00
2017-08-02T17:30:00.560Z,27.90
2017-08-02T17:32:28.066Z,27.90
2017-08-02T17:34:56.323Z,27.80
2017-08-02T17:37:24.573Z,27.70
2017-08-02T17:39:53.112Z,27.70
2017-08-02T17:42:20.618Z,27.80
2017-08-02T17:44:48.176Z,27.70
2017-08-02T17:47:15.705Z,27.70
2017-08-02T17:49:43.220Z,27.60
2017-08-02T17:52:10.785Z,27.50
2017-08-02T17:54:39.065Z,27.50
2017-08-02T17:57:07.340Z,27.50
2017-08-02T17:59:35.593Z,27.50
2017-08-02T18:02:03.127Z,27.50
2017-08-02T18:04:30.629Z,27.50
2017-08-02T18:06:58.144Z,27.40
2017-08-02T18:09:25.636Z,27.40
2017-08-02T18:11:53.128Z,27.40
2017-08-02T18:14:20.670Z,27.30
2017-08-02T18:16:48.185Z,27.30
2017-08-02T18:19:16.533Z,27.50
2017-08-02T18:21:44.016Z,27.50
2017-08-02T18:24:11.525Z,27.50
2017-08-02T18:26:39.042Z,27.40
2017-08-02T18:29:06.575Z,27.30
2017-08-02T18:31:34.089Z,27.00
2017-08-02T18:34:01.614Z,26.80
2017-08-02T18:36:29.177Z,26.30
2017-08-02T18:38:56.700Z,26.20
2017-08-02T18:41:24.221Z,26.20
2017-08-02T18:43:51.765Z,26.30
2017-08-02T18:46:19.307Z,26.20
2017-08-02T18:48:46.793Z,26.20
2017-08-02T18:51:14.305Z,26.20
2017-08-02T18:53:42.703Z,26.30
2017-08-02T18:56:10.212Z,26.00
2017-08-02T18:58:37.713Z,25.90
2017-08-02T19:01:05.244Z,25.80
2017-08-02T19:03:32.777Z,25.60
2017-08-02T19:06:00.306Z,25.50
2017-08-02T19:08:27.785Z,25.50
2017-08-02T19:10:55.330Z,25.40
2017-08-02T19:13:22.841Z,25.40
2017-08-02T19:15:51.217Z,25.60
2017-08-02T19:18:18.836Z,25.60
2017-08-02T19:20:46.500Z,25.70
2017-08-02T19:23:14.000Z,25.70
2017-08-02T19:25:41.528Z,25.60
2017-08-02T19:28:09.014Z,25.50
2017-08-02T19:30:36.557Z,25.20
2017-08-02T19:33:04.165Z,25.20
2017-08-02T19:35:31.655Z,25.10
2017-08-02T19:37:59.204Z,25.20
2017-08-02T19:40:26.705Z,25.30
2017-08-02T19:42:54.233Z,25.20
2017-08-02T19:45:21.865Z,25.00
2017-08-02T19:47:51.425Z,25.00
2017-08-02T19:50:18.979Z,24.90
2017-08-02T19:52:46.484Z,24.90
2017-08-02T19:55:13.986Z,24.80
2017-08-02T19:57:41.538Z,24.80
2017-08-02T20:00:09.188Z,24.80
2017-08-02T20:02:36.797Z,24.70
2017-08-02T20:05:04.297Z,24.80
2017-08-02T20:07:32.173Z,24.90
2017-08-02T20:09:59.834Z,24.80
2017-08-02T20:12:27.459Z,24.90
2017-08-02T20:14:54.982Z,25.00
2017-08-02T20:17:22.890Z,25.00
2017-08-02T20:19:51.181Z,25.10
2017-08-02T20:22:20.133Z,25.10
2017-08-02T20:24:48.708Z,25.20
2017-08-02T20:27:16.207Z,25.20
2017-08-02T20:29:45.333Z,25.30
2017-08-02T20:32:12.874Z,25.20
2017-08-02T20:34:40.900Z,25.40
2017-08-02T20:37:08.464Z,25.40
2017-08-02T20:39:36.113Z,25.40
2017-08-02T20:42:03.639Z,25.30
2017-08-02T20:44:31.243Z,25.30
2017-08-02T20:46:58.823Z,25.20
2017-08-02T20:49:26.385Z,25.30
2017-08-02T20:51:54.007Z,25.20
2017-08-02T20:54:21.527Z,25.20
2017-08-02T20:56:49.076Z,25.20
2017-08-02T20:59:17.174Z,25.20
2017-08-02T21:01:44.849Z,25.10
2017-08-02T21:04:12.426Z,25.00
2017-08-02T21:06:40.192Z,25.00
2017-08-02T21:09:07.725Z,25.00
2017-08-02T21:11:35.229Z,25.00
2017-08-02T21:14:03.094Z,25.00
2017-08-02T21:16:30.593Z,25.00
2017-08-02T21:18:58.121Z,25.00
2017-08-02T21:21:25.676Z,25.00
2017-08-02T21:23:53.201Z,25.00
2017-08-02T21:26:21.774Z,25.10
2017-08-02T21:28:49.300Z,25.20
2017-08-02T21:31:16.815Z,25.20
2017-08-02T21:33:44.317Z,25.20
2017-08-02T21:36:11.854Z,25.10
2017-08-02T21:38:39.378Z,25.10
2017-08-02T21:41:07.015Z,25.00
2017-08-02T21:43:34.526Z,25.00
2017-08-02T21:46:02.196Z,24.80
2017-08-02T21:48:29.706Z,24.70
2017-08-02T21:50:57.254Z,24.60
2017-08-02T21:53:24.736Z,24.60
2017-08-02T21:55:52.227Z,24.60
2017-08-02T21:58:19.722Z,24.50
2017-08-02T22:00:48.048Z,24.60
2017-08-02T22:03:16.478Z,24.50
2017-08-02T22:05:44.774Z,24.60
2017-08-02T22:08:12.489Z,24.50
2017-08-02T22:10:40.012Z,24.60
2017-08-02T22:13:07.518Z,24.70
2017-08-02T22:15:35.017Z,24.80
2017-08-02T22:18:02.565Z,24.80
2017-08-02T22:20:30.074Z,24.70
2017-08-02T22:22:57.584Z,24.80
2017-08-02T22:25:25.834Z,24.80
2017-08-02T22:27:53.367Z,24.70
2017-08-02T22:30:20.987Z,24.70
2017-08-02T22:32:49.291Z,24.60
2017-08-02T22:35:16.809Z,24.60
2017-08-02T22:37:44.316Z,24.70
2017-08-02T22:40:11.837Z,24.70
2017-08-02T22:42:40.103Z,24.50
2017-08-02T22:45:08.369Z,24.40
2017-08-02T22:47:35.897Z,24.40
2017-08-02T22:50:03.389Z,24.50
2017-08-02T22:52:30.896Z,24.70
2017-08-02T22:54:58.401Z,24.60
2017-08-02T22:57:25.917Z,24.60
2017-08-02T22:59:53.417Z,24.50
2017-08-02T23:02:20.937Z,24.40
2017-08-02T23:04:48.443Z,24.30
2017-08-02T23:07:15.939Z,24.40
2017-08-02T23:09:43.495Z,24.40
2017-08-02T23:12:11.047Z,24.40
2017-08-02T23:14:38.533Z,24.40
2017-08-02T23:17:06.067Z,24.40
2017-08-02T23:19:33.578Z,24.40
2017-08-02T23:22:01.105Z,24.30
2017-08-02T23:24:28.629Z,24.30
2017-08-02T23:26:56.162Z,24.30
2017-08-02T23:29:23.687Z,24.30
2017-08-02T23:31:51.183Z,24.40
2017-08-02T23:34:18.679Z,24.40
2017-08-02T23:36:46.200Z,24.30
2017-08-02T23:39:13.720Z,24.30
2017-08-02T23:41:41.241Z,24.20
2017-08-02T23:44:08.745Z,24.30
2017-08-02T23:46:36.268Z,24.30
2017-08-02T23:49:03.822Z,24.30
2017-08-02T23:51:31.540Z,24.20
2017-08-02T23:53:59.082Z,24.30
2017-08-02T23:56:26.656Z,24.20
2017-08-02T23:58:54.174Z,24.20
